Time;durP1;ratioP1;P1;durP2;ratioP2;P2;SDS_P1;SDS_P2;PMS_P1;PMS_P2;Temp;Humidity;BMP_temperature;BMP_pressure;BME280_temperature;BME280_humidity;BME280_pressure;Samples;Min_cycle;Max_cycle;Signal;HPM_P1;HPM_P2
2021/11/02 00:02:11;;;;;;;23.58;5.95;;;6.00;99.90;;;;;;5034316;28;20049;-67
2021/11/02 00:04:37;;;;;;;15.38;4.78;;;6.00;99.90;;;;;;5034816;28;20056;-67
2021/11/02 00:07:03;;;;;;;13.18;4.78;;;6.00;99.90;;;;;;5034949;28;20370;-67
2021/11/02 00:09:31;;;;;;;16.52;5.32;;;6.00;99.90;;;;;;5034734;28;20499;-67
2021/11/02 00:11:58;;;;;;;18.38;5.30;;;6.10;99.90;;;;;;5033883;28;20032;-67
2021/11/02 00:14:26;;;;;;;18.17;5.85;;;6.10;99.90;;;;;;5035024;28;20033;-67
2021/11/02 00:17:03;;;;;;;21.45;5.78;;;6.20;99.90;;;;;;5034958;28;20104;-67
2021/11/02 00:19:29;;;;;;;20.30;5.57;;;6.20;99.90;;;;;;5034185;28;20515;-67
2021/11/02 00:22:03;;;;;;;18.88;5.43;;;6.30;99.90;;;;;;5034583;28;20104;-67
2021/11/02 00:27:01;;;;;;;9.18;5.03;;;6.50;99.90;;;;;;5037731;28;20086;-67
2021/11/02 00:29:27;;;;;;;18.67;4.97;;;6.40;99.90;;;;;;5053923;28;20028;-67
2021/11/02 00:31:53;;;;;;;12.85;4.60;;;6.40;99.90;;;;;;5053851;28;20114;-67
2021/11/02 00:34:18;;;;;;;22.38;5.75;;;6.40;99.90;;;;;;5054317;28;20025;-67
2021/11/02 00:36:44;;;;;;;14.35;4.85;;;6.30;99.90;;;;;;5054271;28;20033;-67
2021/11/02 00:39:09;;;;;;;12.70;5.25;;;6.30;99.90;;;;;;5054155;28;20024;-67
2021/11/02 00:41:35;;;;;;;22.77;5.32;;;6.30;99.90;;;;;;5054091;28;20079;-67
2021/11/02 00:44:01;;;;;;;19.38;5.80;;;6.20;99.90;;;;;;5053458;28;20481;-67
2021/11/02 00:46:32;;;;;;;11.45;4.63;;;6.20;99.90;;;;;;5054103;28;20476;-67
2021/11/02 00:48:58;;;;;;;13.15;4.28;;;6.20;99.90;;;;;;5053939;28;20025;-67
2021/11/02 00:51:24;;;;;;;21.05;5.50;;;6.20;99.90;;;;;;5054298;28;20115;-67
2021/11/02 00:53:50;;;;;;;14.45;5.05;;;6.00;99.90;;;;;;5054033;28;20033;-67
2021/11/02 00:56:15;;;;;;;15.30;4.45;;;6.00;99.90;;;;;;5053037;28;20029;-67
2021/11/02 00:58:41;;;;;;;14.82;4.80;;;5.90;99.90;;;;;;5053802;28;20112;-67
2021/11/02 01:01:07;;;;;;;17.88;5.60;;;5.80;99.90;;;;;;5053689;28;20092;-67
2021/11/02 01:03:34;;;;;;;12.50;4.78;;;5.80;99.90;;;;;;5054149;28;20096;-67
2021/11/02 01:05:59;;;;;;;20.02;5.97;;;5.80;99.90;;;;;;5054195;28;20075;-67
2021/11/02 01:08:26;;;;;;;21.65;6.38;;;5.80;99.90;;;;;;5054201;28;20025;-67
2021/11/02 01:10:53;;;;;;;24.20;8.48;;;5.70;99.90;;;;;;5053778;28;20035;-67
2021/11/02 01:13:19;;;;;;;16.55;6.15;;;5.70;99.90;;;;;;5054665;28;20029;-67
2021/11/02 01:15:45;;;;;;;20.20;6.30;;;5.70;99.90;;;;;;5052581;28;20492;-67
2021/11/02 01:18:11;;;;;;;23.38;7.78;;;5.70;99.90;;;;;;5077568;22;20565;-66
2021/11/02 01:20:38;;;;;;;14.23;6.38;;;5.70;99.90;;;;;;5053878;28;20020;-67
2021/11/02 01:23:04;;;;;;;19.10;7.82;;;5.80;99.90;;;;;;5053822;28;20108;-67
2021/11/02 01:25:30;;;;;;;24.27;7.80;;;5.80;99.90;;;;;;5052583;28;20486;-66
2021/11/02 01:27:56;;;;;;;21.27;7.05;;;5.80;99.90;;;;;;5053678;28;20063;-67
2021/11/02 01:30:21;;;;;;;19.00;7.30;;;5.80;99.90;;;;;;5053549;28;20032;-66
2021/11/02 01:32:47;;;;;;;26.30;8.75;;;5.80;99.90;;;;;;5053718;28;20156;-66
2021/11/02 01:35:13;;;;;;;14.18;6.70;;;5.90;99.90;;;;;;5053452;28;20063;-66
2021/11/02 01:37:39;;;;;;;22.17;6.80;;;5.80;99.90;;;;;;5053765;28;20036;-67
2021/11/02 01:40:11;;;;;;;20.48;7.43;;;5.80;99.90;;;;;;5053591;28;20071;-66
2021/11/02 01:42:38;;;;;;;17.38;6.78;;;5.70;99.90;;;;;;5053541;28;20389;-66
2021/11/02 01:45:05;;;;;;;20.50;7.80;;;5.60;99.90;;;;;;5053797;28;20431;-67
2021/11/02 01:47:32;;;;;;;17.60;8.18;;;5.60;99.90;;;;;;5052816;28;20028;-66
2021/11/02 01:49:58;;;;;;;16.25;8.13;;;5.60;99.90;;;;;;5053449;28;20025;-66
2021/11/02 01:52:24;;;;;;;25.92;7.55;;;5.60;99.90;;;;;;5053703;28;20074;-67
2021/11/02 01:54:50;;;;;;;15.95;7.30;;;5.60;99.90;;;;;;5053416;28;20094;-66
2021/11/02 01:57:16;;;;;;;24.23;8.77;;;5.50;99.90;;;;;;5053443;28;20033;-67
2021/11/02 01:59:41;;;;;;;28.65;10.13;;;5.40;99.90;;;;;;5053257;28;20021;-66
2021/11/02 02:02:09;;;;;;;25.58;11.90;;;5.50;99.90;;;;;;5052802;28;20387;-66
2021/11/02 02:04:34;;;;;;;27.23;11.07;;;5.50;99.90;;;;;;5053317;28;20392;-66
2021/11/02 02:07:27;;;;;;;30.00;12.50;;;5.50;99.90;;;;;;5053255;28;20024;-66
2021/11/02 02:10:08;;;;;;;22.38;11.95;;;5.50;99.90;;;;;;5052629;28;20049;-67
2021/11/02 02:12:38;;;;;;;30.15;13.10;;;5.40;99.90;;;;;;5052975;28;20021;-66
2021/11/02 02:15:15;;;;;;;25.00;13.50;;;5.40;99.90;;;;;;5051880;28;20028;-66
2021/11/02 02:17:51;;;;;;;33.38;14.52;;;5.40;99.90;;;;;;5052704;28;20040;-67
2021/11/02 02:20:57;;;;;;;27.77;12.88;;;5.30;99.90;;;;;;5050970;28;20040;-66
2021/11/02 02:23:47;;;;;;;25.23;13.68;;;5.20;99.90;;;;;;5041335;28;20029;-67
2021/11/02 02:26:40;;;;;;;28.23;13.68;;;5.10;99.90;;;;;;5053126;28;20107;-67
2021/11/02 02:29:07;;;;;;;25.17;13.35;;;5.10;99.90;;;;;;5052472;28;20025;-66
2021/11/02 02:31:38;;;;;;;21.55;11.77;;;4.90;99.90;;;;;;5053503;28;20116;-66
2021/11/02 02:34:05;;;;;;;18.13;11.82;;;4.90;99.90;;;;;;5052895;28;20028;-67
2021/11/02 02:36:32;;;;;;;25.88;12.50;;;4.70;99.90;;;;;;5055888;28;20029;-67
2021/11/02 02:39:00;;;;;;;30.88;12.35;;;4.60;99.90;;;;;;5057101;28;20020;-66
2021/11/02 02:41:26;;;;;;;33.05;13.48;;;4.60;99.90;;;;;;5056565;28;20116;-67
2021/11/02 02:43:53;;;;;;;29.40;12.98;;;4.60;99.90;;;;;;5057215;28;20032;-67
2021/11/02 02:46:19;;;;;;;25.83;12.63;;;4.60;99.90;;;;;;5056867;28;20033;-66
2021/11/02 02:48:46;;;;;;;26.48;13.70;;;4.50;99.90;;;;;;5056445;28;20434;-66
2021/11/02 02:51:13;;;;;;;31.02;13.70;;;4.60;99.90;;;;;;5057079;28;20032;-67
2021/11/02 02:53:44;;;;;;;26.05;14.20;;;4.60;99.90;;;;;;5056604;28;20021;-66
2021/11/02 02:56:11;;;;;;;23.42;13.82;;;4.60;99.90;;;;;;5056654;28;20052;-66
2021/11/02 02:58:41;;;;;;;25.98;13.30;;;4.70;99.90;;;;;;5056122;28;20052;-66
2021/11/02 03:01:09;;;;;;;19.90;12.57;;;4.70;99.90;;;;;;5056646;28;20056;-66
2021/11/02 03:03:45;;;;;;;22.60;12.43;;;4.70;99.90;;;;;;5056822;28;20021;-66
2021/11/02 03:06:14;;;;;;;24.05;13.80;;;4.70;99.90;;;;;;5056569;28;20075;-66
2021/11/02 03:08:40;;;;;;;27.52;13.75;;;4.60;99.90;;;;;;5056295;28;20025;-67
2021/11/02 03:11:08;;;;;;;24.13;13.57;;;4.60;99.90;;;;;;5056663;28;20556;-67
2021/11/02 03:13:35;;;;;;;36.67;14.50;;;4.60;99.90;;;;;;5056029;28;20083;-66
2021/11/02 03:16:05;;;;;;;35.13;13.88;;;4.60;99.90;;;;;;5056210;28;20033;-66
2021/11/02 03:49:00;;;;;;;41.35;13.85;;;4.10;99.90;;;;;;5054914;28;20113;-67
2021/11/02 03:51:45;;;;;;;30.92;14.75;;;4.00;99.90;;;;;;5056044;28;20035;-67
2021/11/02 04:23:17;;;;;;;25.02;13.90;;;4.00;99.90;;;;;;5055690;28;20032;-67
2021/11/02 04:28:28;;;;;;;38.13;14.95;;;3.90;99.90;;;;;;5005466;28;20121;-66
2021/11/02 04:45:22;;;;;;;36.17;16.65;;;3.90;99.90;;;;;;5054981;28;20572;-67
2021/11/02 05:47:30;;;;;;;34.92;17.40;;;4.30;99.90;;;;;;5053546;28;19958;-67
2021/11/02 05:58:17;;;;;;;39.70;20.00;;;4.10;99.90;;;;;;5048497;28;20094;-66
2021/11/02 06:03:58;;;;;;;40.63;20.63;;;4.10;99.90;;;;;;5053154;28;20036;-66
2021/11/02 06:28:55;;;;;;;23.13;14.23;;;3.30;99.90;;;;;;5011332;28;20033;-66
2021/11/02 06:31:28;;;;;;;28.20;16.33;;;3.20;99.90;;;;;;5024418;28;20091;-67
2021/11/02 06:48:24;;;;;;;37.65;19.40;;;3.40;99.90;;;;;;5052321;28;20052;-67
2021/11/02 07:17:43;;;;;;;29.05;15.82;;;3.10;99.90;;;;;;5052607;28;20031;-67
2021/11/02 07:20:01;;;;;;;24.73;14.95;;;3.10;99.90;;;;;;5108255;22;20088;-67
2021/11/02 08:47:02;;;;;;;35.85;20.15;;;6.20;99.90;;;;;;5034703;28;20083;-68
2021/11/02 08:49:06;;;;;;;55.13;21.85;;;6.30;99.90;;;;;;5034184;28;20045;-68
2021/11/02 08:51:34;;;;;;;30.90;19.80;;;6.40;99.90;;;;;;5034006;28;20018;-68
2021/11/02 08:53:59;;;;;;;38.42;19.63;;;6.50;99.90;;;;;;5034589;28;20025;-68
2021/11/02 08:56:25;;;;;;;41.85;21.08;;;6.60;99.90;;;;;;5043621;28;20443;-68
2021/11/02 08:58:53;;;;;;;37.30;20.02;;;6.70;99.90;;;;;;5054300;28;20125;-68
2021/11/02 09:01:24;;;;;;;39.10;19.25;;;6.80;99.90;;;;;;5053969;28;20032;-68
2021/11/02 09:03:59;;;;;;;37.05;21.55;;;6.90;99.90;;;;;;5054281;28;20497;-68
2021/11/02 09:06:25;;;;;;;34.15;18.95;;;7.10;99.90;;;;;;5054580;28;20476;-68
2021/11/02 09:08:54;;;;;;;37.83;19.27;;;7.20;99.90;;;;;;5054195;28;20043;-68
2021/11/02 09:11:25;;;;;;;35.33;20.00;;;7.30;99.90;;;;;;5053585;28;20021;-68
2021/11/02 09:13:53;;;;;;;44.38;20.63;;;7.30;99.90;;;;;;5054481;28;20074;-68
2021/11/02 09:16:21;;;;;;;43.53;20.05;;;7.40;99.90;;;;;;5053704;28;20127;-68
2021/11/02 09:18:48;;;;;;;34.22;18.55;;;7.50;99.90;;;;;;5054006;28;20017;-68
2021/11/02 09:21:15;;;;;;;35.95;19.08;;;7.60;99.90;;;;;;5054050;28;20384;-68
2021/11/02 09:23:50;;;;;;;46.25;18.65;;;7.70;99.90;;;;;;5053392;28;20091;-68
2021/11/02 09:26:20;;;;;;;33.45;17.88;;;7.90;99.90;;;;;;5053738;28;20079;-68
2021/11/02 09:28:46;;;;;;;38.67;17.58;;;8.00;99.90;;;;;;5053701;28;20020;-68
2021/11/02 09:31:13;;;;;;;44.92;17.77;;;8.10;99.90;;;;;;5054336;28;20021;-67
2021/11/02 09:33:39;;;;;;;24.42;16.35;;;8.00;99.90;;;;;;5051903;28;20025;-68
2021/11/02 09:36:10;;;;;;;35.35;16.73;;;7.90;99.90;;;;;;5053396;28;20057;-68
2021/11/02 09:38:49;;;;;;;29.00;16.42;;;8.00;99.90;;;;;;5053510;28;20500;-68
2021/11/02 09:41:37;;;;;;;28.98;14.13;;;8.00;99.90;;;;;;5053962;28;20136;-67
2021/11/02 09:44:40;;;;;;;26.92;15.15;;;8.10;99.90;;;;;;5053815;28;20029;-68
2021/11/02 09:47:27;;;;;;;26.63;15.13;;;8.20;99.90;;;;;;5029867;28;20129;-70
2021/11/02 09:50:10;;;;;;;30.88;13.98;;;8.30;99.90;;;;;;5053753;28;20104;-68
2021/11/02 09:53:03;;;;;;;27.98;15.57;;;8.50;99.90;;;;;;5054067;28;20028;-68
2021/11/02 09:55:42;;;;;;;29.00;13.68;;;8.60;99.90;;;;;;5053733;28;20029;-68
2021/11/02 09:58:21;;;;;;;26.85;15.07;;;8.70;99.90;;;;;;5053663;28;20532;-68
2021/11/02 10:01:10;;;;;;;20.58;12.95;;;8.90;99.90;;;;;;5053880;28;20096;-68
2021/11/02 10:03:59;;;;;;;29.30;14.57;;;9.00;99.90;;;;;;5053567;28;20021;-67
2021/11/02 10:06:44;;;;;;;27.33;13.73;;;9.10;99.90;;;;;;5053876;28;20100;-68
2021/11/02 10:09:28;;;;;;;26.13;13.15;;;9.20;99.90;;;;;;5053222;28;20028;-68
2021/11/02 10:12:07;;;;;;;30.30;14.13;;;9.30;99.90;;;;;;5051938;28;20028;-68
2021/11/02 10:14:59;;;;;;;29.90;12.38;;;9.40;99.90;;;;;;5053127;28;20037;-68
2021/11/02 10:17:30;;;;;;;21.83;13.27;;;9.50;99.90;;;;;;5053369;28;20021;-68
2021/11/02 10:20:10;;;;;;;26.27;12.40;;;9.60;99.90;;;;;;5051615;28;20502;-68
2021/11/02 10:23:17;;;;;;;21.75;12.30;;;9.80;99.90;;;;;;5053638;28;20048;-68
2021/11/02 10:26:18;;;;;;;20.00;13.10;;;9.90;99.90;;;;;;5004489;28;20064;-68
2021/11/02 10:28:58;;;;;;;27.23;14.27;;;10.00;99.90;;;;;;5053245;28;20476;-68
2021/11/02 10:31:41;;;;;;;22.48;12.77;;;10.10;99.90;;;;;;5053304;28;20021;-68
2021/11/02 10:34:34;;;;;;;19.27;13.10;;;10.10;99.90;;;;;;5053901;28;20403;-68
2021/11/02 10:37:11;;;;;;;24.83;12.52;;;10.20;99.90;;;;;;5053212;28;20025;-68
2021/11/02 10:39:52;;;;;;;22.92;11.95;;;10.40;99.90;;;;;;5053047;28;20029;-68
2021/11/02 10:42:33;;;;;;;24.08;13.65;;;10.50;99.90;;;;;;5052966;28;20021;-68
2021/11/02 10:45:00;;;;;;;19.90;12.27;;;10.50;99.90;;;;;;5052703;28;20033;-68
2021/11/02 10:47:41;;;;;;;19.95;11.68;;;10.60;99.90;;;;;;5052846;28;20029;-68
2021/11/02 10:50:13;;;;;;;29.23;13.75;;;10.70;99.90;;;;;;5052855;28;20025;-68
2021/11/02 10:52:40;;;;;;;23.95;11.57;;;10.60;99.90;;;;;;5052801;28;20028;-68
2021/11/02 10:55:22;;;;;;;17.92;12.85;;;10.50;99.90;;;;;;5053101;28;20040;-68
2021/11/02 10:58:17;;;;;;;15.73;12.13;;;10.50;99.90;;;;;;5054585;28;20029;-68
2021/11/02 11:00:46;;;;;;;24.25;13.27;;;10.30;99.90;;;;;;5056635;28;20021;-68
2021/11/02 11:03:13;;;;;;;30.65;13.75;;;10.30;99.90;;;;;;5056887;28;20473;-68
2021/11/02 11:05:44;;;;;;;22.50;13.45;;;10.30;99.90;;;;;;5056628;28;20039;-68
2021/11/02 11:08:14;;;;;;;25.20;12.48;;;10.40;99.90;;;;;;5056593;28;20092;-68
2021/11/02 11:10:42;;;;;;;28.45;14.10;;;10.40;99.90;;;;;;5056426;28;20028;-68
2021/11/02 11:13:10;;;;;;;29.05;13.70;;;10.40;99.90;;;;;;5056477;28;20017;-68
2021/11/02 11:15:38;;;;;;;25.55;12.60;;;10.60;99.90;;;;;;5056413;28;20107;-68
2021/11/02 11:18:07;;;;;;;26.42;13.48;;;10.50;99.90;;;;;;5056312;28;20067;-68
2021/11/02 11:20:34;;;;;;;24.98;12.35;;;10.50;99.90;;;;;;5056191;28;20384;-68
2021/11/02 11:23:05;;;;;;;27.20;13.05;;;10.60;99.90;;;;;;5056285;28;20017;-68
2021/11/02 11:25:52;;;;;;;25.17;12.68;;;10.50;99.90;;;;;;5056564;28;20041;-68
2021/11/02 11:28:19;;;;;;;29.98;13.90;;;10.60;99.90;;;;;;5056536;28;20021;-68
2021/11/02 11:30:46;;;;;;;24.90;12.98;;;10.70;99.90;;;;;;5056073;28;20104;-68
2021/11/02 11:33:19;;;;;;;22.98;12.38;;;10.90;99.90;;;;;;5056328;28;20029;-68
2021/11/02 11:35:45;;;;;;;25.17;11.10;;;11.10;99.90;;;;;;5056153;28;20032;-68
2021/11/02 11:38:14;;;;;;;19.83;11.15;;;11.20;99.90;;;;;;5055990;28;20025;-68
2021/11/02 11:40:42;;;;;;;28.70;12.40;;;11.30;99.90;;;;;;5055870;28;20014;-68
2021/11/02 11:43:09;;;;;;;18.63;11.82;;;11.30;99.90;;;;;;5054657;28;20100;-68
2021/11/02 11:45:38;;;;;;;20.35;11.23;;;11.40;99.90;;;;;;5055908;28;20120;-68
2021/11/02 11:48:15;;;;;;;24.00;11.52;;;11.40;99.90;;;;;;5055807;28;20029;-68
2021/11/02 11:50:44;;;;;;;19.13;10.73;;;11.50;99.90;;;;;;5056035;28;20029;-68
2021/11/02 11:53:16;;;;;;;18.73;11.02;;;11.40;99.90;;;;;;5055730;28;20029;-68
2021/11/02 11:55:46;;;;;;;22.50;12.20;;;11.40;99.90;;;;;;5056122;28;20060;-68
2021/11/02 11:58:23;;;;;;;25.85;11.85;;;11.30;99.90;;;;;;5055652;28;20124;-68
2021/11/02 12:01:03;;;;;;;23.05;12.32;;;11.10;99.90;;;;;;5055576;28;20021;-68
2021/11/02 12:03:47;;;;;;;23.75;12.95;;;11.10;99.90;;;;;;5055836;28;20472;-68
2021/11/02 12:06:13;;;;;;;26.05;12.57;;;11.10;99.90;;;;;;5055511;28;20510;-69
2021/11/02 12:09:06;;;;;;;23.85;12.02;;;11.10;99.90;;;;;;5054926;28;20049;-68
2021/11/02 12:11:33;;;;;;;26.98;13.18;;;10.90;99.90;;;;;;5055709;28;20025;-68
2021/11/02 12:14:18;;;;;;;28.50;13.57;;;10.80;99.90;;;;;;5055362;28;20055;-68
2021/11/02 12:16:46;;;;;;;19.17;13.18;;;10.90;99.90;;;;;;5055236;28;20476;-68
2021/11/02 12:19:16;;;;;;;20.42;13.45;;;10.90;99.90;;;;;;5055289;28;20128;-68
2021/11/02 12:21:48;;;;;;;28.90;13.75;;;11.00;99.90;;;;;;5053860;28;20476;-68
2021/11/02 12:24:16;;;;;;;28.60;12.85;;;11.40;99.90;;;;;;5054065;28;20037;-68
2021/11/02 12:26:47;;;;;;;20.95;12.23;;;11.40;99.90;;;;;;5055380;28;20428;-68
2021/11/02 12:29:24;;;;;;;26.55;11.70;;;11.80;99.90;;;;;;5055170;28;20032;-68
2021/11/02 12:32:01;;;;;;;24.05;11.02;;;12.40;99.90;;;;;;5055042;28;20029;-68
2021/11/02 12:34:50;;;;;;;18.20;9.98;;;13.20;99.90;;;;;;5055029;28;20048;-68
2021/11/02 12:37:20;;;;;;;22.77;9.85;;;13.30;99.90;;;;;;5054874;28;20039;-68
2021/11/02 12:39:48;;;;;;;18.75;10.13;;;13.00;99.90;;;;;;5054813;28;20041;-68
2021/11/02 12:42:20;;;;;;;30.73;11.00;;;12.80;99.90;;;;;;5054681;28;20060;-68
2021/11/02 12:44:46;;;;;;;23.40;11.20;;;12.30;99.90;;;;;;5055149;28;20029;-68
2021/11/02 12:47:23;;;;;;;19.58;11.93;;;12.10;99.90;;;;;;5054704;28;20065;-68
2021/11/02 12:49:55;;;;;;;16.75;10.05;;;11.90;99.90;;;;;;5054769;28;20126;-68
2021/11/02 12:52:26;;;;;;;39.60;11.43;;;11.90;99.90;;;;;;5054640;28;20377;-68
2021/11/02 12:55:04;;;;;;;14.68;9.25;;;12.10;99.90;;;;;;5054580;28;20021;-68
2021/11/02 12:58:07;;;;;;;14.88;8.93;;;12.40;99.90;;;;;;5054775;28;20029;-68
2021/11/02 13:00:50;;;;;;;19.05;11.23;;;12.20;99.90;;;;;;5036213;28;20090;-68
2021/11/02 13:03:24;;;;;;;22.35;10.77;;;11.90;99.90;;;;;;5054735;28;20025;-68
2021/11/02 13:06:01;;;;;;;18.52;10.65;;;12.10;99.90;;;;;;5054385;28;20183;-68
2021/11/02 13:08:32;;;;;;;16.85;9.07;;;12.90;99.90;;;;;;5054404;28;20021;-68
2021/11/02 13:11:06;;;;;;;21.23;9.98;;;13.40;99.90;;;;;;5054278;28;20032;-68
2021/11/02 13:13:40;;;;;;;21.63;9.45;;;13.30;99.90;;;;;;5054499;28;20391;-68
2021/11/02 13:16:06;;;;;;;20.50;9.82;;;13.20;99.90;;;;;;5054397;28;20025;-68
2021/11/02 13:18:39;;;;;;;22.83;10.18;;;12.90;99.90;;;;;;5052653;28;20102;-68
2021/11/02 13:21:20;;;;;;;24.85;11.50;;;12.80;99.90;;;;;;5053676;28;20045;-68
2021/11/02 13:23:50;;;;;;;21.77;10.63;;;12.40;99.90;;;;;;5053580;28;20025;-68
2021/11/02 13:26:21;;;;;;;26.08;11.82;;;12.20;99.90;;;;;;5054008;28;20445;-68
2021/11/02 13:28:50;;;;;;;22.15;11.52;;;11.80;99.90;;;;;;5054165;28;20028;-68
2021/11/02 13:31:25;;;;;;;19.00;11.05;;;11.70;99.90;;;;;;5054202;28;20090;-68
2021/11/02 13:34:01;;;;;;;25.40;11.18;;;11.50;99.90;;;;;;5053866;28;20028;-68
2021/11/02 13:36:27;;;;;;;17.83;10.57;;;11.60;99.90;;;;;;5053702;28;20036;-68
2021/11/02 13:39:01;;;;;;;28.58;12.23;;;11.50;99.90;;;;;;5053965;28;20021;-68
2021/11/02 13:41:36;;;;;;;20.33;11.68;;;11.50;99.90;;;;;;5053746;28;20028;-68
2021/11/02 13:44:05;;;;;;;25.42;11.93;;;11.40;99.90;;;;;;5053683;28;20546;-68
2021/11/02 13:46:38;;;;;;;23.60;12.93;;;11.30;99.90;;;;;;5053611;28;20036;-68
2021/11/02 13:49:05;;;;;;;29.80;12.85;;;11.30;99.90;;;;;;5053831;28;20472;-68
2021/11/02 13:51:31;;;;;;;23.88;11.60;;;11.30;99.90;;;;;;5053771;28;20119;-68
2021/11/02 13:53:57;;;;;;;30.10;12.10;;;11.50;99.90;;;;;;5053447;28;20060;-68
2021/11/02 13:56:27;;;;;;;19.20;10.82;;;11.90;99.90;;;;;;5053392;28;20031;-68
2021/11/02 13:58:54;;;;;;;15.80;9.70;;;12.50;99.90;;;;;;5053395;28;20036;-68
2021/11/02 14:01:27;;;;;;;21.40;10.25;;;12.70;99.90;;;;;;5068861;28;20477;-68
2021/11/02 14:04:13;;;;;;;17.13;10.57;;;12.80;99.90;;;;;;5053632;28;20399;-68
2021/11/02 14:06:42;;;;;;;18.20;8.05;;;12.90;99.90;;;;;;5053915;28;20499;-68
2021/11/02 14:09:14;;;;;;;16.67;8.25;;;13.00;99.90;;;;;;5053640;28;20025;-68
2021/11/02 14:11:40;;;;;;;23.52;9.10;;;13.30;99.90;;;;;;5053263;28;20055;-68
2021/11/02 14:14:10;;;;;;;15.50;8.50;;;13.20;99.90;;;;;;5068606;28;20547;-68
2021/11/02 14:16:41;;;;;;;21.50;9.93;;;12.90;99.90;;;;;;5053165;28;20115;-68
2021/11/02 14:19:39;;;;;;;18.95;10.10;;;12.50;99.90;;;;;;5053053;28;20032;-68
2021/11/02 14:22:07;;;;;;;21.85;11.10;;;11.80;99.90;;;;;;5053190;28;20147;-68
2021/11/02 14:24:37;;;;;;;24.00;11.07;;;11.40;99.90;;;;;;5053355;28;20025;-68
2021/11/02 14:27:06;;;;;;;26.23;10.40;;;11.20;99.90;;;;;;5053301;28;20028;-68
2021/11/02 14:29:51;;;;;;;20.65;10.45;;;11.20;99.90;;;;;;5052935;28;20559;-68
2021/11/02 14:32:35;;;;;;;16.85;10.82;;;11.00;99.90;;;;;;5056073;28;20068;-68
2021/11/02 14:35:10;;;;;;;26.08;10.93;;;10.90;99.90;;;;;;5057225;28;20036;-68
2021/11/02 14:37:47;;;;;;;18.65;11.52;;;10.70;99.90;;;;;;5057162;28;20029;-68
2021/11/02 14:40:39;;;;;;;19.25;10.82;;;10.70;99.90;;;;;;5055830;28;20032;-68
2021/11/02 14:43:17;;;;;;;19.00;10.13;;;10.80;99.90;;;;;;5057135;28;20048;-68
2021/11/02 14:45:43;;;;;;;22.02;12.13;;;10.70;99.90;;;;;;5056981;28;20019;-68
2021/11/02 14:48:28;;;;;;;26.35;12.13;;;10.50;99.90;;;;;;5056978;28;20100;-68
2021/11/02 14:51:12;;;;;;;23.67;13.88;;;10.30;99.90;;;;;;5056952;28;20021;-68
2021/11/02 14:53:42;;;;;;;32.75;14.00;;;10.10;99.90;;;;;;5057162;28;20036;-68
2021/11/02 14:56:11;;;;;;;24.38;15.52;;;9.90;99.90;;;;;;5055588;28;20025;-68
2021/11/02 14:58:40;;;;;;;26.90;14.75;;;9.80;99.90;;;;;;5056633;28;20017;-68
2021/11/02 15:01:37;;;;;;;31.88;16.73;;;9.70;99.90;;;;;;5056803;28;20049;-68
2021/11/02 15:04:12;;;;;;;29.13;16.50;;;9.60;99.90;;;;;;5035860;28;20040;-68
2021/11/02 15:06:44;;;;;;;28.48;17.50;;;9.70;99.90;;;;;;5056886;28;20480;-68
2021/11/02 15:09:12;;;;;;;26.77;15.73;;;9.70;99.90;;;;;;5056553;28;20033;-68
2021/11/02 15:11:42;;;;;;;30.25;16.02;;;9.70;99.90;;;;;;5056829;28;20059;-68
2021/11/02 15:14:23;;;;;;;36.33;18.45;;;9.60;99.90;;;;;;5056449;28;20100;-68
2021/11/02 15:16:51;;;;;;;25.85;14.27;;;9.50;99.90;;;;;;5056593;28;20025;-68
2021/11/02 15:19:20;;;;;;;21.15;14.30;;;9.40;99.90;;;;;;5056234;28;20535;-68
2021/11/02 15:22:11;;;;;;;21.83;13.80;;;9.40;99.90;;;;;;5056376;28;20021;-68
2021/11/02 15:25:01;;;;;;;29.23;15.38;;;9.30;99.90;;;;;;5056424;28;20023;-68
2021/11/02 15:27:30;;;;;;;25.33;14.18;;;9.30;99.90;;;;;;5048266;28;20043;-68
2021/11/02 15:30:07;;;;;;;29.90;13.88;;;9.20;99.90;;;;;;5054911;28;20024;-68
2021/11/02 15:32:40;;;;;;;21.95;12.70;;;9.10;99.90;;;;;;5056398;28;20025;-68
2021/11/02 15:35:10;;;;;;;17.77;12.30;;;9.00;99.90;;;;;;5056494;28;20083;-68
2021/11/02 15:37:42;;;;;;;19.05;13.10;;;9.00;99.90;;;;;;5056281;28;20103;-68
2021/11/02 15:40:16;;;;;;;24.30;13.55;;;8.90;99.90;;;;;;5055960;28;20030;-68
2021/11/02 15:42:44;;;;;;;22.20;13.90;;;8.90;99.90;;;;;;5055153;28;20388;-68
2021/11/02 15:45:29;;;;;;;18.02;12.65;;;8.90;99.90;;;;;;5056209;28;20025;-68
2021/11/02 15:48:08;;;;;;;25.25;13.75;;;8.90;99.90;;;;;;5056181;28;20017;-68
2021/11/02 15:50:37;;;;;;;20.55;13.48;;;8.90;99.90;;;;;;5055895;28;20472;-68
2021/11/02 15:53:06;;;;;;;21.30;13.32;;;9.00;99.90;;;;;;5054484;28;20443;-68
2021/11/02 15:55:32;;;;;;;21.48;14.43;;;9.00;99.90;;;;;;5055751;28;20492;-68
2021/11/02 15:58:01;;;;;;;28.75;16.45;;;9.00;99.90;;;;;;5055608;28;20056;-68
2021/11/02 16:00:38;;;;;;;23.25;13.75;;;9.00;99.90;;;;;;5055911;28;20443;-68
2021/11/02 16:03:07;;;;;;;20.35;13.73;;;9.00;99.90;;;;;;5055824;28;20025;-68
2021/11/02 16:05:35;;;;;;;21.88;14.65;;;9.00;99.90;;;;;;5055607;28;20044;-68
2021/11/02 16:08:22;;;;;;;24.33;15.75;;;9.00;99.90;;;;;;5055812;28;20037;-68
2021/11/02 16:10:52;;;;;;;23.02;14.75;;;8.90;99.90;;;;;;5055046;28;20035;-68
2021/11/02 16:13:26;;;;;;;22.20;13.52;;;8.90;99.90;;;;;;5054125;28;20116;-68
2021/11/02 16:15:53;;;;;;;24.38;15.73;;;8.90;99.90;;;;;;5055664;28;20033;-68
2021/11/02 16:18:25;;;;;;;20.00;14.75;;;8.90;99.90;;;;;;5055439;28;20024;-68
2021/11/02 16:20:52;;;;;;;19.65;15.07;;;8.90;99.90;;;;;;5055211;28;20037;-68
2021/11/02 16:23:23;;;;;;;21.30;13.80;;;8.80;99.90;;;;;;5055171;28;20056;-68
2021/11/02 16:25:58;;;;;;;21.17;14.77;;;8.80;99.90;;;;;;5055196;28;20036;-68
2021/11/02 16:28:32;;;;;;;21.60;13.60;;;8.70;99.90;;;;;;5055108;28;20028;-68
2021/11/02 16:31:02;;;;;;;23.30;12.88;;;8.60;99.90;;;;;;5055251;28;20032;-68
2021/11/02 16:33:30;;;;;;;17.88;13.38;;;8.60;99.90;;;;;;5055328;28;20070;-68
2021/11/02 16:35:56;;;;;;;23.75;12.45;;;8.50;99.90;;;;;;5055217;28;20036;-68
2021/11/02 16:38:36;;;;;;;21.38;13.60;;;8.40;99.90;;;;;;5055132;28;20029;-68
2021/11/02 16:41:22;;;;;;;17.35;12.30;;;8.40;99.90;;;;;;5055618;28;20029;-68
2021/11/02 16:43:51;;;;;;;21.77;15.73;;;8.30;99.90;;;;;;5055107;28;20079;-68
2021/11/02 16:46:41;;;;;;;67.78;30.17;;;8.30;99.90;;;;;;5055013;28;20082;-68
2021/11/02 16:49:24;;;;;;;24.48;14.50;;;8.30;99.90;;;;;;5054839;28;20445;-68
2021/11/02 16:51:58;;;;;;;55.60;24.60;;;8.30;99.90;;;;;;5054657;28;20099;-68
2021/11/02 16:54:28;;;;;;;50.97;25.42;;;8.30;99.90;;;;;;5053394;28;20036;-68
2021/11/02 16:56:59;;;;;;;30.25;17.05;;;8.30;99.90;;;;;;5054728;28;20044;-68
2021/11/02 16:59:42;;;;;;;62.60;36.28;;;8.20;99.90;;;;;;5054489;28;20391;-68
2021/11/02 17:02:24;;;;;;;46.10;28.02;;;8.20;99.90;;;;;;5055067;28;20096;-68
2021/11/02 17:05:16;;;;;;;30.55;17.13;;;8.20;99.90;;;;;;5054725;28;20033;-68
2021/11/02 17:08:01;;;;;;;22.70;13.93;;;8.10;99.90;;;;;;5054321;28;20029;-68
2021/11/02 17:10:34;;;;;;;30.60;13.25;;;7.90;99.90;;;;;;5054350;28;20025;-68
2021/11/02 17:13:17;;;;;;;19.38;10.27;;;7.60;99.90;;;;;;5054504;28;20098;-68
2021/11/02 17:15:55;;;;;;;19.08;10.32;;;7.50;99.90;;;;;;5054179;28;20060;-68
2021/11/02 17:18:56;;;;;;;16.42;10.23;;;7.40;99.90;;;;;;5054385;28;20025;-68
2021/11/02 17:21:30;;;;;;;15.00;10.02;;;7.30;99.90;;;;;;5051029;28;20576;-68
2021/11/02 17:23:57;;;;;;;13.77;9.63;;;7.30;99.90;;;;;;5054303;28;20031;-68
2021/11/02 17:26:25;;;;;;;23.15;12.93;;;7.30;99.90;;;;;;5054310;28;20104;-68
2021/11/02 17:28:52;;;;;;;15.85;12.25;;;7.40;99.90;;;;;;5053898;28;20024;-68
2021/11/02 17:31:22;;;;;;;17.92;13.07;;;7.40;99.90;;;;;;5053937;28;20032;-68
2021/11/02 17:33:49;;;;;;;18.35;14.05;;;7.40;99.90;;;;;;5054183;28;20021;-68
2021/11/02 17:36:21;;;;;;;16.67;13.18;;;7.50;99.90;;;;;;5053859;28;20380;-68
2021/11/02 17:38:48;;;;;;;19.60;13.57;;;7.60;99.90;;;;;;5052567;28;20021;-68
2021/11/02 17:41:14;;;;;;;23.42;14.40;;;7.60;99.90;;;;;;5053816;28;20021;-68
2021/11/02 17:43:42;;;;;;;28.02;15.05;;;7.70;99.90;;;;;;5054552;28;20032;-68
2021/11/02 17:46:09;;;;;;;24.77;17.13;;;7.70;99.90;;;;;;5053909;28;20025;-68
2021/11/02 17:48:35;;;;;;;20.75;17.85;;;7.70;99.90;;;;;;5053507;28;20075;-68
2021/11/02 17:51:02;;;;;;;22.10;17.50;;;7.80;99.90;;;;;;5053842;28;20480;-68
2021/11/02 17:53:28;;;;;;;23.65;15.98;;;7.80;99.90;;;;;;5053832;28;20021;-68
2021/11/02 17:55:58;;;;;;;25.55;17.73;;;7.80;99.90;;;;;;5054358;28;20419;-68
2021/11/02 17:58:26;;;;;;;27.27;18.92;;;7.80;99.90;;;;;;5053369;28;20029;-68
2021/11/02 18:00:55;;;;;;;25.90;18.00;;;7.90;99.90;;;;;;5053436;28;20017;-68
2021/11/02 18:03:22;;;;;;;26.30;17.77;;;7.90;99.90;;;;;;5053343;28;20100;-68